Time;durP1;ratioP1;P1;durP2;ratioP2;P2;SDS_P1;SDS_P2;PMS_P1;PMS_P2;Temp;Humidity;BMP_temperature;BMP_pressure;BME280_temperature;BME280_humidity;BME280_pressure;Samples;Min_cycle;Max_cycle;Signal;HPM_P1;HPM_P2
2022/04/29 00:01:56;;;;;;;;;27.25;25.25;;;;;;;;5029640;28;51220;-52
2022/04/29 00:04:23;;;;;;;;;30.25;28.75;;;;;;;;5028891;28;51325;-51
2022/04/29 00:06:49;;;;;;;;;27.75;27.25;;;;;;;;5026000;28;51205;-54
2022/04/29 00:09:14;;;;;;;;;29.25;27.75;;;;;;;;5030864;28;51664;-54
2022/04/29 00:11:40;;;;;;;;;28.25;27.00;;;;;;;;5030116;28;50844;-54
2022/04/29 00:14:05;;;;;;;;;25.75;25.75;;;;;;;;5029982;28;51218;-51
2022/04/29 00:16:30;;;;;;;;;33.75;31.00;;;;;;;;5025046;28;52399;-50
2022/04/29 00:18:55;;;;;;;;;22.75;22.25;;;;;;;;5031717;28;51007;-51
2022/04/29 00:21:21;;;;;;;;;27.25;27.25;;;;;;;;5025508;28;52009;-52
2022/04/29 00:23:46;;;;;;;;;28.50;27.00;;;;;;;;5028458;28;51115;-53
2022/04/29 00:26:11;;;;;;;;;31.25;27.00;;;;;;;;5024863;28;52133;-51
2022/04/29 00:28:36;;;;;;;;;32.00;29.50;;;;;;;;5025351;28;51222;-52
2022/04/29 00:31:01;;;;;;;;;30.75;30.50;;;;;;;;5023676;28;51361;-52
2022/04/29 00:33:27;;;;;;;;;32.00;26.25;;;;;;;;5025870;28;51224;-53
2022/04/29 00:35:52;;;;;;;;;29.50;28.50;;;;;;;;5025095;28;52761;-53
2022/04/29 00:38:18;;;;;;;;;30.75;28.25;;;;;;;;5020970;28;51056;-50
2022/04/29 00:40:44;;;;;;;;;32.75;31.25;;;;;;;;5024010;28;51260;-52
2022/04/29 00:43:11;;;;;;;;;32.75;31.00;;;;;;;;5024900;28;51009;-52
2022/04/29 00:45:36;;;;;;;;;30.50;30.00;;;;;;;;5023955;28;51560;-51
2022/04/29 00:48:01;;;;;;;;;34.50;31.75;;;;;;;;5025694;28;51051;-51
2022/04/29 00:50:28;;;;;;;;;36.00;32.25;;;;;;;;5025024;28;51115;-52
2022/04/29 00:52:54;;;;;;;;;34.00;32.00;;;;;;;;5025656;28;52053;-52
2022/04/29 00:55:20;;;;;;;;;30.50;30.00;;;;;;;;5026322;28;51968;-51
2022/04/29 00:57:55;;;;;;;;;33.25;31.25;;;;;;;;5024846;28;51127;-53
2022/04/29 01:00:22;;;;;;;;;32.50;29.75;;;;;;;;5024302;28;52013;-54
2022/04/29 01:02:49;;;;;;;;;30.75;29.50;;;;;;;;5025345;28;51417;-53
2022/04/29 01:05:15;;;;;;;;;37.00;33.75;;;;;;;;5023026;28;52055;-52
2022/04/29 01:07:41;;;;;;;;;36.75;31.50;;;;;;;;5022243;28;51305;-54
2022/04/29 01:10:10;;;;;;;;;35.50;32.25;;;;;;;;5022624;28;52395;-51
2022/04/29 01:12:36;;;;;;;;;35.00;31.00;;;;;;;;5023357;28;51214;-51
2022/04/29 01:15:09;;;;;;;;;31.00;30.25;;;;;;;;5023035;28;51526;-54
2022/04/29 01:17:35;;;;;;;;;32.50;29.75;;;;;;;;5021869;28;52041;-52
2022/04/29 01:20:04;;;;;;;;;36.75;33.25;;;;;;;;5025184;28;51107;-52
2022/04/29 01:22:31;;;;;;;;;34.00;31.75;;;;;;;;5021813;28;51075;-50
2022/04/29 01:24:56;;;;;;;;;35.25;31.50;;;;;;;;5021771;28;52785;-51
2022/04/29 01:27:21;;;;;;;;;31.50;29.00;;;;;;;;5021019;28;51329;-51
2022/04/29 01:29:57;;;;;;;;;31.50;28.75;;;;;;;;5024190;28;51417;-53
2022/04/29 01:32:23;;;;;;;;;34.25;32.50;;;;;;;;5024649;28;52129;-51
2022/04/29 01:34:48;;;;;;;;;35.50;31.75;;;;;;;;5024829;28;52971;-52
2022/04/29 01:37:13;;;;;;;;;34.75;32.25;;;;;;;;5024265;28;51170;-53
2022/04/29 01:39:38;;;;;;;;;36.25;32.00;;;;;;;;5022423;28;51267;-52
2022/04/29 01:42:04;;;;;;;;;30.25;28.75;;;;;;;;5021311;28;52431;-50
2022/04/29 01:44:29;;;;;;;;;35.75;31.75;;;;;;;;5023723;28;53107;-53
2022/04/29 01:46:54;;;;;;;;;39.75;34.50;;;;;;;;5020113;28;51075;-53
2022/04/29 01:49:19;;;;;;;;;34.00;32.00;;;;;;;;5029972;28;50878;-52
2022/04/29 01:51:45;;;;;;;;;29.50;29.00;;;;;;;;5027269;28;51128;-53
2022/04/29 01:54:11;;;;;;;;;35.75;32.75;;;;;;;;5031520;28;52013;-52
2022/04/29 01:56:39;;;;;;;;;31.75;30.25;;;;;;;;5022011;28;51249;-51
2022/04/29 01:59:05;;;;;;;;;43.25;36.00;;;;;;;;5028887;28;51365;-51
2022/04/29 02:01:30;;;;;;;;;36.25;33.00;;;;;;;;5023030;28;50923;-53
2022/04/29 02:03:55;;;;;;;;;33.50;31.75;;;;;;;;5029210;28;53590;-53
2022/04/29 02:06:21;;;;;;;;;35.25;32.00;;;;;;;;5024648;28;51248;-51
2022/04/29 02:08:48;;;;;;;;;36.75;32.75;;;;;;;;5029375;28;51125;-53
2022/04/29 02:11:13;;;;;;;;;32.50;28.00;;;;;;;;5028018;28;50902;-50
2022/04/29 02:13:38;;;;;;;;;35.75;33.50;;;;;;;;5028790;28;52134;-52
2022/04/29 02:16:04;;;;;;;;;31.50;31.00;;;;;;;;5024708;28;51774;-50
2022/04/29 02:18:29;;;;;;;;;37.25;31.75;;;;;;;;5029047;28;50939;-52
2022/04/29 02:20:54;;;;;;;;;34.50;32.00;;;;;;;;5024112;28;51005;-50
2022/04/29 02:23:20;;;;;;;;;33.25;31.25;;;;;;;;5022137;28;51181;-50
2022/04/29 02:25:45;;;;;;;;;31.75;31.25;;;;;;;;5024887;28;51089;-54
2022/04/29 02:28:10;;;;;;;;;38.00;34.00;;;;;;;;5022959;28;51181;-49
2022/04/29 02:30:35;;;;;;;;;37.25;34.00;;;;;;;;5026255;28;51499;-51
2022/04/29 02:33:01;;;;;;;;;34.50;32.00;;;;;;;;5024377;28;51185;-52
2022/04/29 02:35:26;;;;;;;;;35.75;33.75;;;;;;;;5022491;28;52605;-51
2022/04/29 02:37:51;;;;;;;;;42.00;35.00;;;;;;;;5023088;28;51183;-50
2022/04/29 02:40:16;;;;;;;;;39.75;34.25;;;;;;;;5031034;28;51198;-51
2022/04/29 02:42:42;;;;;;;;;33.75;31.75;;;;;;;;5022881;28;51921;-50
2022/04/29 02:45:07;;;;;;;;;29.00;28.25;;;;;;;;5023380;28;51173;-51
2022/04/29 02:47:32;;;;;;;;;32.50;31.00;;;;;;;;5020076;28;51801;-49
2022/04/29 02:49:58;;;;;;;;;32.75;30.75;;;;;;;;5029500;28;50870;-51
2022/04/29 02:52:23;;;;;;;;;38.75;34.00;;;;;;;;5020466;28;51560;-53
2022/04/29 02:54:48;;;;;;;;;38.50;34.00;;;;;;;;5026428;28;51258;-52
2022/04/29 02:57:13;;;;;;;;;33.00;31.75;;;;;;;;5020525;28;51437;-54
2022/04/29 02:59:39;;;;;;;;;35.75;32.75;;;;;;;;5027174;28;51000;-51
2022/04/29 03:02:04;;;;;;;;;35.50;32.75;;;;;;;;5017499;28;52066;-53
2022/04/29 03:04:29;;;;;;;;;35.50;32.00;;;;;;;;5023384;28;51420;-51
2022/04/29 03:06:55;;;;;;;;;35.00;32.00;;;;;;;;5021384;28;51044;-54
2022/04/29 03:09:21;;;;;;;;;44.00;35.00;;;;;;;;5023504;28;51203;-50
2022/04/29 03:11:48;;;;;;;;;35.75;33.00;;;;;;;;5025089;28;51198;-51
2022/04/29 03:14:13;;;;;;;;;35.50;33.50;;;;;;;;5026488;28;51096;-50
2022/04/29 03:16:38;;;;;;;;;32.75;30.75;;;;;;;;5019372;28;51196;-53
2022/04/29 03:19:04;;;;;;;;;36.50;33.00;;;;;;;;5024826;28;51118;-53
2022/04/29 03:21:29;;;;;;;;;35.75;33.00;;;;;;;;5020056;28;52056;-52
2022/04/29 03:23:55;;;;;;;;;37.50;32.75;;;;;;;;5029207;28;50963;-50
2022/04/29 03:26:20;;;;;;;;;35.25;33.25;;;;;;;;5027632;28;50962;-52
2022/04/29 03:28:46;;;;;;;;;38.25;34.25;;;;;;;;5025454;28;51449;-51
2022/04/29 03:31:11;;;;;;;;;36.50;34.25;;;;;;;;5020589;28;51329;-49
2022/04/29 03:33:36;;;;;;;;;35.25;33.25;;;;;;;;5024050;28;51050;-50
2022/04/29 03:36:01;;;;;;;;;37.25;33.75;;;;;;;;5031592;28;51203;-52
2022/04/29 03:38:27;;;;;;;;;33.50;30.50;;;;;;;;5028060;28;54398;-50
2022/04/29 03:40:52;;;;;;;;;37.00;33.50;;;;;;;;5027856;28;51222;-52
2022/04/29 03:43:18;;;;;;;;;36.00;33.75;;;;;;;;5020847;28;51238;-55
2022/04/29 03:45:44;;;;;;;;;37.25;34.00;;;;;;;;5027666;28;51320;-52
2022/04/29 03:48:09;;;;;;;;;34.75;32.50;;;;;;;;5022208;28;51243;-53
2022/04/29 03:50:34;;;;;;;;;33.25;31.25;;;;;;;;5030337;28;51188;-50
2022/04/29 03:53:01;;;;;;;;;39.75;35.00;;;;;;;;5020813;28;51138;-51
2022/04/29 03:55:30;;;;;;;;;44.50;37.00;;;;;;;;5027777;28;51176;-49
2022/04/29 03:57:56;;;;;;;;;41.25;34.50;;;;;;;;5022674;28;52435;-52
2022/04/29 04:00:22;;;;;;;;;36.75;32.50;;;;;;;;5033975;28;51765;-51
2022/04/29 04:02:47;;;;;;;;;40.00;32.00;;;;;;;;5024866;28;51235;-53
2022/04/29 04:05:13;;;;;;;;;35.75;32.00;;;;;;;;5045862;28;51004;-54
2022/04/29 04:07:38;;;;;;;;;36.75;33.75;;;;;;;;5023002;28;50875;-51
2022/04/29 04:10:04;;;;;;;;;39.25;35.50;;;;;;;;5027961;28;51932;-52
2022/04/29 04:12:39;;;;;;;;;37.00;34.00;;;;;;;;5024363;28;51156;-50
2022/04/29 04:15:05;;;;;;;;;35.25;32.25;;;;;;;;5026285;28;51252;-51
2022/04/29 04:17:31;;;;;;;;;42.00;32.25;;;;;;;;5023413;28;52429;-49
2022/04/29 04:19:56;;;;;;;;;34.25;32.00;;;;;;;;5031745;28;52705;-50
2022/04/29 04:22:21;;;;;;;;;42.00;34.50;;;;;;;;5025511;28;51196;-52
2022/04/29 04:24:46;;;;;;;;;35.50;32.50;;;;;;;;5027029;28;51179;-52
2022/04/29 04:27:12;;;;;;;;;36.75;31.25;;;;;;;;5021655;28;51403;-50
2022/04/29 04:29:37;;;;;;;;;41.25;35.25;;;;;;;;5030238;28;52075;-52
2022/04/29 04:32:02;;;;;;;;;35.50;32.00;;;;;;;;5026003;28;51121;-52
2022/04/29 04:37:12;;;;;;;;;32.75;32.25;;;;;;;;5026034;28;51033;-52
2022/04/29 04:39:37;;;;;;;;;43.50;34.50;;;;;;;;5030633;28;51992;-49
2022/04/29 04:42:02;;;;;;;;;34.00;31.50;;;;;;;;5024396;28;51294;-53
2022/04/29 04:44:27;;;;;;;;;37.00;33.50;;;;;;;;5031433;28;51436;-52
2022/04/29 04:46:53;;;;;;;;;33.50;29.25;;;;;;;;5027325;28;51352;-49
2022/04/29 04:49:18;;;;;;;;;38.00;34.00;;;;;;;;5028167;28;51366;-52
2022/04/29 04:51:43;;;;;;;;;34.00;31.25;;;;;;;;5030328;28;53630;-50
2022/04/29 04:54:09;;;;;;;;;34.25;32.00;;;;;;;;5028276;28;51105;-51
2022/04/29 04:56:34;;;;;;;;;36.00;33.00;;;;;;;;5027634;28;50967;-51
2022/04/29 04:59:00;;;;;;;;;36.00;32.00;;;;;;;;5027409;28;51731;-52
2022/04/29 05:01:25;;;;;;;;;37.00;33.75;;;;;;;;5028679;28;51336;-53
2022/04/29 05:03:50;;;;;;;;;33.75;32.00;;;;;;;;5025629;28;51229;-52
2022/04/29 05:06:16;;;;;;;;;41.00;35.00;;;;;;;;5023701;28;51242;-50
2022/04/29 05:08:41;;;;;;;;;36.00;31.50;;;;;;;;5026528;28;52054;-51
2022/04/29 05:11:06;;;;;;;;;36.75;32.50;;;;;;;;5028013;28;50990;-51
2022/04/29 05:13:31;;;;;;;;;36.75;34.00;;;;;;;;5023294;28;50982;-54
2022/04/29 05:15:57;;;;;;;;;39.75;34.75;;;;;;;;5023774;28;50912;-52
2022/04/29 05:18:22;;;;;;;;;40.50;35.00;;;;;;;;5022815;28;51179;-51
2022/04/29 05:20:48;;;;;;;;;32.75;30.50;;;;;;;;5027415;28;54316;-50
2022/04/29 05:23:13;;;;;;;;;37.50;32.75;;;;;;;;5026246;28;50851;-52
2022/04/29 05:25:39;;;;;;;;;37.50;32.25;;;;;;;;5026567;28;51364;-50
2022/04/29 05:28:04;;;;;;;;;38.50;34.50;;;;;;;;5007201;28;53154;-51
2022/04/29 05:30:30;;;;;;;;;36.50;33.50;;;;;;;;5020749;28;51857;-51
2022/04/29 05:32:56;;;;;;;;;35.50;33.25;;;;;;;;5026782;28;50969;-51
2022/04/29 05:35:22;;;;;;;;;34.50;31.50;;;;;;;;5028396;28;51570;-51
2022/04/29 05:37:47;;;;;;;;;38.25;34.00;;;;;;;;5018697;28;51125;-54
2022/04/29 05:42:56;;;;;;;;;36.75;33.25;;;;;;;;5018447;28;51121;-51
2022/04/29 05:45:22;;;;;;;;;40.50;32.00;;;;;;;;5024952;28;51334;-52
2022/04/29 05:47:47;;;;;;;;;42.50;35.00;;;;;;;;5023707;28;51964;-50
2022/04/29 05:50:12;;;;;;;;;51.75;41.25;;;;;;;;5028592;28;51149;-50
2022/04/29 05:52:38;;;;;;;;;39.25;35.75;;;;;;;;5025870;28;51053;-51
2022/04/29 05:55:03;;;;;;;;;30.00;29.25;;;;;;;;5026812;28;51236;-49
2022/04/29 05:57:28;;;;;;;;;53.75;43.00;;;;;;;;5016456;28;51939;-49
2022/04/29 05:59:54;;;;;;;;;52.75;41.00;;;;;;;;5023224;28;51330;-51
2022/04/29 06:02:21;;;;;;;;;36.00;33.25;;;;;;;;5023954;28;51129;-52
2022/04/29 06:04:46;;;;;;;;;43.25;37.00;;;;;;;;5017481;28;51088;-51
2022/04/29 06:07:12;;;;;;;;;49.00;41.25;;;;;;;;5022654;28;51354;-52
2022/04/29 06:09:37;;;;;;;;;41.00;35.25;;;;;;;;5027292;28;51050;-50
2022/04/29 06:12:02;;;;;;;;;38.75;33.25;;;;;;;;5025136;28;51088;-49
2022/04/29 06:14:28;;;;;;;;;34.75;31.75;;;;;;;;5033741;28;51216;-51
2022/04/29 06:16:53;;;;;;;;;40.75;36.00;;;;;;;;5040857;28;52106;-53
2022/04/29 06:19:18;;;;;;;;;43.25;36.00;;;;;;;;5029076;28;51172;-52
2022/04/29 06:21:43;;;;;;;;;52.25;43.25;;;;;;;;5025517;28;50968;-51
2022/04/29 06:24:12;;;;;;;;;47.25;39.50;;;;;;;;5022143;28;51321;-52
2022/04/29 06:26:37;;;;;;;;;32.25;29.50;;;;;;;;5025819;28;51206;-52
2022/04/29 06:29:02;;;;;;;;;36.75;32.50;;;;;;;;5029952;28;51095;-52
2022/04/29 06:31:28;;;;;;;;;36.50;32.50;;;;;;;;5025704;28;51213;-51
2022/04/29 06:33:53;;;;;;;;;40.25;34.50;;;;;;;;5028510;28;51119;-52
2022/04/29 06:36:18;;;;;;;;;36.25;32.00;;;;;;;;5023039;28;51141;-54
2022/04/29 06:38:43;;;;;;;;;33.25;32.00;;;;;;;;5024510;28;51249;-52
2022/04/29 06:41:09;;;;;;;;;33.75;32.00;;;;;;;;5025379;28;51215;-52
2022/04/29 06:43:34;;;;;;;;;38.00;33.75;;;;;;;;5024103;28;51104;-51
2022/04/29 06:45:59;;;;;;;;;36.75;33.75;;;;;;;;5025855;28;52582;-54
2022/04/29 06:48:24;;;;;;;;;42.50;34.75;;;;;;;;5027093;28;50911;-50
2022/04/29 06:50:49;;;;;;;;;37.75;32.25;;;;;;;;5024240;28;51030;-50
2022/04/29 06:53:15;;;;;;;;;39.00;34.00;;;;;;;;5020920;28;51351;-49
2022/04/29 06:55:40;;;;;;;;;38.50;33.00;;;;;;;;5026448;28;51593;-52
2022/04/29 06:58:06;;;;;;;;;40.75;34.00;;;;;;;;5023508;28;51319;-51
2022/04/29 07:00:32;;;;;;;;;38.75;33.25;;;;;;;;5023296;28;51122;-53
2022/04/29 07:02:57;;;;;;;;;39.50;34.75;;;;;;;;5023476;28;51042;-52
2022/04/29 07:05:23;;;;;;;;;35.75;33.50;;;;;;;;5026448;28;51717;-51
2022/04/29 07:07:49;;;;;;;;;41.00;34.50;;;;;;;;5024599;28;51164;-49
2022/04/29 07:10:15;;;;;;;;;43.00;36.25;;;;;;;;5026336;28;51128;-49
2022/04/29 07:12:41;;;;;;;;;32.25;30.25;;;;;;;;5027422;28;51144;-53
2022/04/29 07:15:07;;;;;;;;;32.75;32.00;;;;;;;;5030193;28;51159;-51
2022/04/29 07:17:32;;;;;;;;;39.75;34.00;;;;;;;;5029366;28;51093;-51
2022/04/29 07:19:58;;;;;;;;;46.00;36.75;;;;;;;;5030798;28;51281;-51
2022/04/29 07:22:23;;;;;;;;;35.50;32.75;;;;;;;;5027791;28;51280;-52
2022/04/29 07:24:49;;;;;;;;;40.50;37.00;;;;;;;;5029274;28;52603;-50
2022/04/29 07:27:14;;;;;;;;;46.50;38.25;;;;;;;;5025369;28;51106;-52
2022/04/29 07:29:39;;;;;;;;;40.75;36.00;;;;;;;;5032811;28;51116;-55
2022/04/29 07:32:04;;;;;;;;;38.50;34.25;;;;;;;;5024184;28;51349;-51
2022/04/29 07:42:41;;;;;;;;;42.00;37.50;;;;;;;;5022764;28;51043;-53
2022/04/29 07:45:07;;;;;;;;;43.25;36.00;;;;;;;;5032743;28;51891;-51
2022/04/29 07:47:35;;;;;;;;;41.50;36.75;;;;;;;;5025799;28;51078;-52
2022/04/29 07:50:01;;;;;;;;;39.75;35.50;;;;;;;;5033165;28;51300;-51
2022/04/29 07:52:26;;;;;;;;;47.75;39.50;;;;;;;;5025773;28;51305;-52
2022/04/29 07:54:51;;;;;;;;;47.25;37.75;;;;;;;;5024320;28;51584;-51
2022/04/29 07:57:16;;;;;;;;;44.75;38.00;;;;;;;;5020359;28;50955;-51
2022/04/29 07:59:42;;;;;;;;;46.00;39.00;;;;;;;;5032903;28;50873;-50
2022/04/29 08:02:07;;;;;;;;;45.25;35.50;;;;;;;;5021050;28;50999;-51
2022/04/29 08:04:33;;;;;;;;;41.50;36.25;;;;;;;;5026524;28;51890;-53
2022/04/29 08:06:58;;;;;;;;;50.50;38.50;;;;;;;;5022360;28;51231;-52
2022/04/29 08:09:23;;;;;;;;;47.00;39.00;;;;;;;;5026438;28;51120;-53
2022/04/29 08:11:49;;;;;;;;;42.50;36.75;;;;;;;;5024896;28;51631;-53
2022/04/29 08:14:15;;;;;;;;;46.00;39.25;;;;;;;;5025990;28;51238;-50
2022/04/29 08:16:40;;;;;;;;;52.00;41.50;;;;;;;;5028107;28;51124;-49
2022/04/29 08:19:06;;;;;;;;;48.75;39.00;;;;;;;;5034070;28;51030;-51
2022/04/29 08:21:31;;;;;;;;;49.00;41.75;;;;;;;;5032927;28;51043;-51
2022/04/29 08:23:56;;;;;;;;;46.25;39.75;;;;;;;;5031783;28;51751;-52
2022/04/29 08:26:21;;;;;;;;;50.75;40.75;;;;;;;;5033717;28;50960;-53
2022/04/29 08:28:47;;;;;;;;;48.75;40.00;;;;;;;;5033458;28;50976;-52
2022/04/29 08:31:12;;;;;;;;;54.75;44.25;;;;;;;;5033352;28;50993;-53
2022/04/29 08:33:38;;;;;;;;;52.75;42.50;;;;;;;;5031477;28;51748;-52
2022/04/29 08:36:03;;;;;;;;;50.75;42.25;;;;;;;;5033606;28;51046;-51
2022/04/29 08:38:28;;;;;;;;;53.00;42.75;;;;;;;;5030088;28;52599;-52
2022/04/29 08:40:59;;;;;;;;;48.50;40.50;;;;;;;;5033971;28;51346;-51
2022/04/29 08:43:25;;;;;;;;;50.75;40.50;;;;;;;;5032936;28;51334;-51
2022/04/29 08:45:51;;;;;;;;;40.00;33.50;;;;;;;;5033654;28;50989;-53
2022/04/29 08:48:17;;;;;;;;;51.50;40.00;;;;;;;;5033077;28;51406;-51
2022/04/29 08:50:42;;;;;;;;;50.00;41.50;;;;;;;;5033143;28;51109;-51
2022/04/29 08:53:07;;;;;;;;;51.50;41.25;;;;;;;;5032843;28;51017;-51
2022/04/29 09:01:09;;;;;;;;;50.25;40.25;;;;;;;;5019842;28;50930;-51
2022/04/29 09:03:34;;;;;;;;;50.75;41.00;;;;;;;;5022397;28;52141;-52
2022/04/29 09:06:00;;;;;;;;;44.25;38.50;;;;;;;;5024228;28;51048;-51
2022/04/29 09:08:25;;;;;;;;;48.75;38.75;;;;;;;;5031251;28;51341;-50
2022/04/29 09:10:57;;;;;;;;;44.00;37.00;;;;;;;;5033529;28;51108;-53
2022/04/29 09:13:24;;;;;;;;;44.50;39.00;;;;;;;;5032388;28;51806;-52
2022/04/29 09:15:51;;;;;;;;;47.50;39.50;;;;;;;;5033306;28;51228;-53
2022/04/29 09:18:33;;;;;;;;;49.00;41.00;;;;;;;;5033095;28;51067;-51
2022/04/29 09:21:00;;;;;;;;;45.50;39.00;;;;;;;;5032777;28;50944;-53
2022/04/29 09:23:26;;;;;;;;;45.00;36.75;;;;;;;;5032608;28;52154;-54
2022/04/29 09:25:52;;;;;;;;;45.50;38.75;;;;;;;;5031367;28;51050;-52
2022/04/29 09:28:17;;;;;;;;;46.50;36.75;;;;;;;;5032476;28;51041;-53
2022/04/29 09:30:42;;;;;;;;;48.00;38.75;;;;;;;;5032074;28;51269;-52
2022/04/29 09:33:18;;;;;;;;;36.25;32.75;;;;;;;;5032870;28;51045;-52
2022/04/29 09:35:44;;;;;;;;;42.00;35.75;;;;;;;;5032990;28;51172;-52
2022/04/29 09:40:54;;;;;;;;;45.00;36.75;;;;;;;;5024568;28;50980;-55
2022/04/29 09:43:34;;;;;;;;;45.00;37.50;;;;;;;;5023417;28;51697;-52
2022/04/29 09:46:11;;;;;;;;;41.50;35.75;;;;;;;;5028303;28;51057;-55
2022/04/29 09:48:55;;;;;;;;;45.50;37.00;;;;;;;;5021835;28;51033;-53
2022/04/29 09:51:39;;;;;;;;;46.50;38.50;;;;;;;;5032538;28;51109;-51
2022/04/29 09:54:10;;;;;;;;;40.00;34.25;;;;;;;;5027780;28;51112;-53
2022/04/29 09:56:35;;;;;;;;;47.00;39.00;;;;;;;;5025856;28;51162;-52
2022/04/29 09:59:00;;;;;;;;;40.50;35.50;;;;;;;;5032172;28;51175;-54
2022/04/29 10:01:26;;;;;;;;;42.75;36.25;;;;;;;;5032170;28;51111;-54
2022/04/29 10:03:51;;;;;;;;;46.25;38.75;;;;;;;;5031799;28;51246;-54
2022/04/29 10:06:18;;;;;;;;;41.25;36.25;;;;;;;;5031751;28;51614;-54
2022/04/29 10:08:44;;;;;;;;;42.75;36.00;;;;;;;;5029410;28;50814;-53
2022/04/29 10:11:09;;;;;;;;;40.50;34.50;;;;;;;;5032085;28;51188;-53
2022/04/29 10:13:35;;;;;;;;;43.75;35.25;;;;;;;;5027602;28;51124;-57
2022/04/29 10:16:01;;;;;;;;;35.75;32.50;;;;;;;;5032411;28;50965;-58
2022/04/29 10:21:21;;;;;;;;;44.25;36.50;;;;;;;;4991049;28;50946;-58
2022/04/29 10:23:49;;;;;;;;;40.50;35.50;;;;;;;;5032489;28;51931;-57
2022/04/29 10:26:18;;;;;;;;;37.25;33.25;;;;;;;;5032153;28;50919;-59
2022/04/29 10:28:43;;;;;;;;;37.25;32.50;;;;;;;;5029601;28;50884;-57
2022/04/29 10:56:25;;;;;;;;;36.75;33.25;;;;;;;;5025606;28;51190;-58
2022/04/29 10:58:50;;;;;;;;;43.25;35.50;;;;;;;;5029478;28;52488;-57
2022/04/29 11:01:27;;;;;;;;;41.25;33.75;;;;;;;;5028273;28;50977;-59
2022/04/29 11:03:53;;;;;;;;;37.25;34.25;;;;;;;;5034230;28;50985;-58
2022/04/29 11:06:18;;;;;;;;;43.50;37.50;;;;;;;;5034339;28;51068;-59
2022/04/29 11:08:44;;;;;;;;;44.25;37.25;;;;;;;;5045725;28;51684;-59
2022/04/29 11:11:10;;;;;;;;;45.25;38.25;;;;;;;;5041108;28;51032;-58
2022/04/29 11:13:37;;;;;;;;;39.00;35.25;;;;;;;;5039225;28;51132;-58
2022/04/29 11:16:20;;;;;;;;;38.75;35.25;;;;;;;;5039959;28;51303;-57
2022/04/29 11:19:06;;;;;;;;;39.75;35.50;;;;;;;;5026107;28;52887;-59
2022/04/29 11:26:59;;;;;;;;;39.50;34.75;;;;;;;;5024770;28;51008;-58
2022/04/29 11:29:24;;;;;;;;;42.50;35.00;;;;;;;;5033756;28;52001;-57
2022/04/29 11:31:49;;;;;;;;;48.50;39.00;;;;;;;;5033769;28;51043;-57
2022/04/29 11:34:15;;;;;;;;;42.25;35.50;;;;;;;;5036578;28;50906;-58
2022/04/29 11:36:41;;;;;;;;;41.00;35.00;;;;;;;;5034215;28;51024;-59
2022/04/29 11:39:14;;;;;;;;;30.75;27.50;;;;;;;;5036653;28;51898;-57
2022/04/29 11:41:50;;;;;;;;;37.25;32.50;;;;;;;;5034236;28;51178;-59
2022/04/29 11:44:16;;;;;;;;;35.00;32.50;;;;;;;;5005192;28;51103;-60
2022/04/29 11:46:50;;;;;;;;;38.25;34.25;;;;;;;;5051621;28;51128;-59
2022/04/29 11:49:26;;;;;;;;;45.00;38.75;;;;;;;;5041460;28;52890;-59
2022/04/29 11:51:51;;;;;;;;;43.75;35.25;;;;;;;;5032874;28;51148;-59
2022/04/29 11:54:17;;;;;;;;;35.25;32.00;;;;;;;;5029432;28;51152;-59
2022/04/29 11:56:42;;;;;;;;;37.25;33.25;;;;;;;;5039710;28;51136;-58
2022/04/29 11:59:08;;;;;;;;;38.75;33.50;;;;;;;;5044265;28;52744;-60
2022/04/29 12:01:34;;;;;;;;;35.25;32.00;;;;;;;;5038461;28;51077;-59
2022/04/29 12:03:59;;;;;;;;;34.75;32.75;;;;;;;;5044814;28;51128;-58
2022/04/29 12:06:24;;;;;;;;;30.50;29.50;;;;;;;;5038357;28;50892;-58
2022/04/29 12:08:50;;;;;;;;;35.25;30.00;;;;;;;;5041306;28;52182;-59
2022/04/29 12:11:23;;;;;;;;;36.50;32.50;;;;;;;;5037661;28;51054;-62
2022/04/29 12:13:49;;;;;;;;;35.00;32.00;;;;;;;;5040404;28;51649;-58
2022/04/29 12:16:15;;;;;;;;;35.00;32.75;;;;;;;;5045861;28;51284;-58
2022/04/29 12:18:41;;;;;;;;;37.00;32.50;;;;;;;;5040701;28;51777;-59
2022/04/29 12:21:07;;;;;;;;;36.25;32.75;;;;;;;;5045187;28;50961;-57
2022/04/29 12:23:35;;;;;;;;;38.00;33.25;;;;;;;;5033886;28;50887;-58
2022/04/29 12:26:01;;;;;;;;;36.50;32.00;;;;;;;;5035017;28;51083;-58
2022/04/29 12:28:28;;;;;;;;;39.50;34.00;;;;;;;;5048728;28;51699;-58
2022/04/29 12:36:47;;;;;;;;;35.75;32.50;;;;;;;;5046932;28;51210;-59
2022/04/29 12:39:13;;;;;;;;;38.50;32.75;;;;;;;;5015915;28;53894;-59
2022/04/29 12:41:38;;;;;;;;;34.25;32.25;;;;;;;;5034186;28;50761;-59
2022/04/29 12:44:07;;;;;;;;;31.50;29.00;;;;;;;;5033869;28;51157;-59
2022/04/29 12:46:32;;;;;;;;;37.50;32.75;;;;;;;;5039052;28;51205;-60
2022/04/29 12:48:58;;;;;;;;;33.00;30.25;;;;;;;;5039692;28;51157;-58
2022/04/29 12:51:33;;;;;;;;;34.00;30.50;;;;;;;;5033473;28;51031;-59
2022/04/29 12:53:59;;;;;;;;;33.50;30.25;;;;;;;;5018501;28;51044;-59
2022/04/29 12:56:25;;;;;;;;;29.75;29.25;;;;;;;;5033177;28;50904;-59
2022/04/29 12:58:51;;;;;;;;;33.00;31.75;;;;;;;;5039291;28;51871;-58
2022/04/29 13:01:16;;;;;;;;;34.50;31.50;;;;;;;;5047577;28;50934;-59
2022/04/29 13:03:47;;;;;;;;;34.50;32.00;;;;;;;;5032928;28;51057;-59
2022/04/29 13:06:12;;;;;;;;;34.50;32.50;;;;;;;;5044348;28;51048;-59
2022/04/29 13:08:37;;;;;;;;;33.25;30.75;;;;;;;;5052977;28;50974;-59
2022/04/29 13:11:05;;;;;;;;;34.50;32.00;;;;;;;;5053145;28;51031;-59
2022/04/29 13:13:31;;;;;;;;;37.00;32.25;;;;;;;;5052971;28;50931;-58
2022/04/29 13:15:56;;;;;;;;;36.25;33.25;;;;;;;;5053315;28;51288;-59
2022/04/29 13:18:25;;;;;;;;;32.00;30.50;;;;;;;;5052661;28;51774;-57
2022/04/29 13:20:52;;;;;;;;;33.00;30.50;;;;;;;;5039730;28;51042;-59
2022/04/29 13:23:17;;;;;;;;;28.75;26.75;;;;;;;;5032931;28;50902;-59
2022/04/29 13:25:43;;;;;;;;;28.00;26.50;;;;;;;;5014927;28;51008;-59
2022/04/29 13:28:08;;;;;;;;;30.25;29.00;;;;;;;;5032149;28;51768;-58
2022/04/29 13:30:35;;;;;;;;;28.00;25.75;;;;;;;;5014739;28;51018;-58
2022/04/29 13:33:00;;;;;;;;;29.50;28.25;;;;;;;;5032739;28;51153;-57
2022/04/29 13:35:25;;;;;;;;;26.25;26.00;;;;;;;;5032598;28;50946;-58
2022/04/29 13:37:51;;;;;;;;;25.75;25.75;;;;;;;;5032511;28;51247;-58
2022/04/29 13:40:16;;;;;;;;;28.50;27.00;;;;;;;;5032450;28;50828;-58
2022/04/29 13:42:42;;;;;;;;;25.75;24.75;;;;;;;;5032185;28;50835;-58
2022/04/29 13:45:10;;;;;;;;;27.50;26.50;;;;;;;;5032150;28;51110;-59
2022/04/29 13:47:35;;;;;;;;;24.25;23.25;;;;;;;;5044829;28;51027;-59
2022/04/29 13:50:01;;;;;;;;;28.25;26.00;;;;;;;;5051700;28;51081;-58
2022/04/29 13:55:10;;;;;;;;;29.00;27.75;;;;;;;;5029879;28;51103;-60
2022/04/29 13:57:36;;;;;;;;;23.75;23.00;;;;;;;;5051467;28;51040;-59
2022/04/29 14:00:03;;;;;;;;;24.75;23.00;;;;;;;;5052466;28;50954;-58
2022/04/29 14:02:29;;;;;;;;;27.00;24.50;;;;;;;;5018066;28;51094;-58
2022/04/29 14:04:56;;;;;;;;;25.25;23.75;;;;;;;;5031840;28;50915;-58
2022/04/29 14:07:21;;;;;;;;;22.50;21.75;;;;;;;;5031618;28;51994;-59
2022/04/29 14:09:46;;;;;;;;;22.50;21.00;;;;;;;;5032492;28;50976;-58
2022/04/29 14:12:11;;;;;;;;;23.75;22.25;;;;;;;;5031930;28;50928;-59
2022/04/29 14:14:37;;;;;;;;;24.25;23.50;;;;;;;;5032024;28;50883;-58
2022/04/29 14:17:03;;;;;;;;;20.75;20.00;;;;;;;;5012991;28;51775;-60
2022/04/29 14:19:28;;;;;;;;;23.00;21.00;;;;;;;;5031485;28;50960;-59
2022/04/29 14:21:53;;;;;;;;;22.25;21.25;;;;;;;;5032133;28;51252;-62
2022/04/29 14:24:18;;;;;;;;;23.00;22.25;;;;;;;;5044472;28;50986;-59
2022/04/29 14:26:44;;;;;;;;;24.00;22.00;;;;;;;;5031753;28;52031;-59
2022/04/29 14:29:09;;;;;;;;;22.75;22.75;;;;;;;;5013341;28;50851;-61
2022/04/29 14:31:35;;;;;;;;;25.50;22.50;;;;;;;;5031526;28;51221;-59
2022/04/29 14:34:00;;;;;;;;;22.00;21.25;;;;;;;;5027281;28;51071;-60
2022/04/29 14:36:29;;;;;;;;;22.50;21.75;;;;;;;;5049613;28;51092;-57
2022/04/29 14:38:54;;;;;;;;;19.25;19.25;;;;;;;;5051665;28;51184;-60
2022/04/29 14:41:20;;;;;;;;;23.75;22.50;;;;;;;;5032839;28;50924;-59
2022/04/29 14:43:45;;;;;;;;;22.25;22.00;;;;;;;;5044955;28;51170;-58
2022/04/29 14:46:10;;;;;;;;;23.75;22.25;;;;;;;;5014199;28;51733;-58
2022/04/29 14:48:38;;;;;;;;;21.75;21.75;;;;;;;;5050895;28;50937;-58
2022/04/29 14:51:04;;;;;;;;;21.00;19.75;;;;;;;;5050778;28;50983;-59
2022/04/29 14:53:31;;;;;;;;;19.50;18.75;;;;;;;;5051541;28;51322;-59
2022/04/29 14:55:57;;;;;;;;;21.50;18.50;;;;;;;;5045458;28;52657;-59
2022/04/29 14:58:23;;;;;;;;;26.75;26.25;;;;;;;;5050263;28;51083;-58
2022/04/29 15:00:48;;;;;;;;;27.50;25.75;;;;;;;;5049370;28;51002;-60
2022/04/29 15:03:14;;;;;;;;;22.25;22.25;;;;;;;;5050758;28;51296;-60
2022/04/29 15:05:42;;;;;;;;;23.75;23.00;;;;;;;;5050766;28;51666;-58
2022/04/29 15:08:07;;;;;;;;;25.25;24.50;;;;;;;;5051189;28;50989;-58
2022/04/29 15:16:00;;;;;;;;;23.50;22.75;;;;;;;;5050899;28;51124;-59
2022/04/29 15:18:25;;;;;;;;;21.50;20.75;;;;;;;;5051189;28;50970;-58
2022/04/29 15:20:51;;;;;;;;;21.00;20.50;;;;;;;;5051194;28;50867;-59